createdAt,value
2023-04-27T00:01:42.217Z,7.47
2023-04-27T00:04:09.682Z,10.07
2023-04-27T00:06:37.136Z,11.70
2023-04-27T00:09:04.656Z,8.30
2023-04-27T00:11:31.902Z,8.10
2023-04-27T00:13:59.135Z,8.35
2023-04-27T00:16:26.531Z,7.72
2023-04-27T00:18:54.147Z,8.20
2023-04-27T00:21:21.180Z,7.68
2023-04-27T00:23:48.194Z,7.97
2023-04-27T00:26:15.179Z,8.57
2023-04-27T00:28:44.454Z,8.23
2023-04-27T00:31:11.407Z,7.72
2023-04-27T00:33:38.493Z,8.52
2023-04-27T00:36:06.152Z,8.98
2023-04-27T00:38:33.226Z,8.77
2023-04-27T00:41:07.238Z,8.85
2023-04-27T00:43:41.474Z,8.25
2023-04-27T00:46:08.882Z,11.90
2023-04-27T00:48:35.984Z,8.90
2023-04-27T00:51:02.960Z,12.73
2023-04-27T00:53:29.964Z,8.98
2023-04-27T00:55:58.537Z,8.98
2023-04-27T00:58:26.061Z,8.77
2023-04-27T01:00:53.077Z,10.32
2023-04-27T01:03:20.374Z,8.85
2023-04-27T01:05:47.454Z,8.68
2023-04-27T01:08:14.954Z,9.38
2023-04-27T01:10:42.443Z,13.30
2023-04-27T01:13:10.890Z,10.02
2023-04-27T01:15:38.548Z,11.93
2023-04-27T01:18:10.605Z,9.48
2023-04-27T01:20:39.114Z,9.38
2023-04-27T01:23:06.444Z,9.75
2023-04-27T01:25:33.463Z,8.93
2023-04-27T01:28:02.870Z,9.50
2023-04-27T01:30:30.503Z,12.00
2023-04-27T01:32:59.246Z,9.18
2023-04-27T01:35:28.227Z,9.32
2023-04-27T01:38:00.715Z,9.68
2023-04-27T01:40:27.777Z,10.25
2023-04-27T01:42:54.956Z,8.88
2023-04-27T01:45:22.079Z,9.57
2023-04-27T01:47:52.088Z,10.30
2023-04-27T01:50:20.511Z,9.90
2023-04-27T01:52:47.921Z,11.73
2023-04-27T01:55:14.954Z,11.15
2023-04-27T01:57:42.499Z,10.50
2023-04-27T02:00:10.022Z,11.82
2023-04-27T02:02:53.615Z,13.43
2023-04-27T02:05:22.966Z,10.40
2023-04-27T02:07:50.566Z,12.45
2023-04-27T02:10:17.552Z,14.00
2023-04-27T02:12:48.448Z,11.98
2023-04-27T02:15:16.020Z,11.77
2023-04-27T02:17:44.183Z,12.32
2023-04-27T02:20:13.296Z,11.80
2023-04-27T02:22:43.942Z,12.75
2023-04-27T02:25:14.326Z,11.68
2023-04-27T02:27:43.628Z,11.70
2023-04-27T02:30:11.919Z,13.25
2023-04-27T02:32:39.977Z,15.00
2023-04-27T02:35:07.958Z,11.65
2023-04-27T02:37:35.139Z,14.05
2023-04-27T02:40:02.268Z,12.05
2023-04-27T02:42:31.867Z,15.57
2023-04-27T02:44:59.038Z,13.23
2023-04-27T02:47:26.761Z,11.48
2023-04-27T02:49:53.800Z,13.23
2023-04-27T02:52:20.758Z,12.45
2023-04-27T02:54:47.806Z,13.57
2023-04-27T02:57:15.007Z,12.15
2023-04-27T02:59:42.034Z,11.13
2023-04-27T03:02:09.005Z,10.98
2023-04-27T03:04:36.770Z,10.88
2023-04-27T03:07:04.434Z,11.25
2023-04-27T03:09:31.543Z,10.27
2023-04-27T03:11:58.688Z,10.30
2023-04-27T03:14:27.410Z,12.85
2023-04-27T03:16:56.190Z,12.05
2023-04-27T03:19:23.765Z,11.82
2023-04-27T03:21:51.389Z,10.35
2023-04-27T03:24:18.380Z,11.70
2023-04-27T03:26:45.402Z,12.48
2023-04-27T03:29:12.553Z,12.90
2023-04-27T03:31:39.859Z,13.02
2023-04-27T03:34:06.800Z,12.40
2023-04-27T03:36:33.855Z,13.73
2023-04-27T03:39:00.833Z,11.13
2023-04-27T03:41:27.911Z,11.57
2023-04-27T03:43:54.933Z,12.45
2023-04-27T03:46:22.090Z,11.15
2023-04-27T03:48:49.832Z,11.43
2023-04-27T03:51:18.474Z,9.95
2023-04-27T03:53:46.800Z,15.43
2023-04-27T03:56:14.585Z,10.70
2023-04-27T03:58:41.537Z,10.80
2023-04-27T04:01:18.934Z,13.35
2023-04-27T04:03:48.310Z,11.98
2023-04-27T04:06:15.430Z,11.73
2023-04-27T04:08:42.382Z,10.43
2023-04-27T04:11:09.992Z,11.93
2023-04-27T04:13:37.477Z,13.98
2023-04-27T04:16:08.831Z,12.27
2023-04-27T04:18:36.229Z,12.75
2023-04-27T04:21:04.005Z,13.95
2023-04-27T04:23:32.991Z,9.80
2023-04-27T04:26:00.134Z,13.05
2023-04-27T04:28:31.350Z,12.18
2023-04-27T04:30:59.800Z,11.35
2023-04-27T04:33:27.198Z,11.25
2023-04-27T04:35:55.688Z,13.52
2023-04-27T04:38:23.971Z,18.23
2023-04-27T04:40:52.971Z,9.90
2023-04-27T04:43:20.051Z,12.95
2023-04-27T04:45:47.705Z,12.90
2023-04-27T04:48:16.594Z,10.50
2023-04-27T04:50:46.008Z,14.93
2023-04-27T04:53:13.814Z,18.17
2023-04-27T04:55:41.919Z,10.32
2023-04-27T04:58:09.634Z,12.27
2023-04-27T05:00:36.962Z,11.90
2023-04-27T05:03:04.065Z,13.13
2023-04-27T05:05:31.200Z,10.57
2023-04-27T05:07:58.220Z,12.88
2023-04-27T05:10:25.236Z,11.20
2023-04-27T05:12:52.143Z,11.13
2023-04-27T05:15:19.295Z,13.35
2023-04-27T05:17:46.503Z,13.02
2023-04-27T05:20:13.713Z,9.80
2023-04-27T05:22:41.158Z,13.27
2023-04-27T05:25:08.620Z,18.02
2023-04-27T05:27:35.790Z,11.43
2023-04-27T05:30:03.367Z,10.10
2023-04-27T05:32:33.885Z,12.00
2023-04-27T05:35:01.010Z,11.40
2023-04-27T05:37:28.356Z,12.05
2023-04-27T05:39:55.303Z,11.80
2023-04-27T05:42:22.271Z,10.63
2023-04-27T05:44:49.370Z,10.48
2023-04-27T05:47:16.505Z,8.98
2023-04-27T05:49:43.775Z,7.93
2023-04-27T05:52:10.826Z,8.63
2023-04-27T05:54:37.923Z,10.38
2023-04-27T05:57:04.884Z,9.52
2023-04-27T05:59:31.836Z,11.15
2023-04-27T06:01:58.998Z,13.13
2023-04-27T06:04:26.690Z,9.02
2023-04-27T06:06:53.839Z,10.63
2023-04-27T06:09:20.872Z,9.30
2023-04-27T06:11:47.959Z,8.52
2023-04-27T06:14:15.153Z,9.55
2023-04-27T06:16:42.268Z,10.20
2023-04-27T06:19:09.586Z,10.70
2023-04-27T06:21:36.730Z,11.70
2023-04-27T06:24:03.952Z,10.75
2023-04-27T06:26:31.226Z,8.50
2023-04-27T06:28:58.293Z,10.75
2023-04-27T06:31:26.444Z,12.40
2023-04-27T06:33:53.886Z,11.13
2023-04-27T06:36:21.235Z,8.45
2023-04-27T06:38:48.276Z,7.40
2023-04-27T06:41:15.321Z,8.32
2023-04-27T06:43:42.279Z,11.10
2023-04-27T06:46:09.241Z,8.18
2023-04-27T06:48:36.519Z,7.35
2023-04-27T06:51:03.671Z,7.47
2023-04-27T06:53:31.544Z,9.20
2023-04-27T06:55:58.603Z,7.15
2023-04-27T06:58:25.729Z,13.70
2023-04-27T07:00:52.974Z,7.78
2023-04-27T07:03:21.345Z,7.68
2023-04-27T07:05:48.463Z,7.10
2023-04-27T07:08:15.373Z,6.20
2023-04-27T07:10:42.344Z,6.03
2023-04-27T07:13:09.814Z,7.18
2023-04-27T07:15:37.493Z,8.10
2023-04-27T07:18:04.599Z,5.65
2023-04-27T07:20:31.985Z,6.07
2023-04-27T07:22:58.887Z,5.03
2023-04-27T07:25:25.961Z,5.82
2023-04-27T07:27:53.033Z,5.32
2023-04-27T07:30:20.199Z,5.47
2023-04-27T07:32:48.324Z,6.63
2023-04-27T07:35:15.532Z,5.72
2023-04-27T07:37:44.201Z,6.28
2023-04-27T07:40:16.421Z,6.45
2023-04-27T07:42:43.728Z,5.38
2023-04-27T07:45:10.866Z,7.22
2023-04-27T07:47:39.119Z,6.75
2023-04-27T07:50:10.037Z,6.10
2023-04-27T07:52:37.385Z,8.40
2023-04-27T07:55:04.770Z,6.57
2023-04-27T07:57:32.131Z,5.75
2023-04-27T07:59:59.305Z,6.28
2023-04-27T08:02:30.455Z,6.93
2023-04-27T08:04:57.875Z,6.68
2023-04-27T08:07:25.333Z,9.88
2023-04-27T08:09:53.292Z,7.68
2023-04-27T08:12:20.334Z,7.10
2023-04-27T08:14:47.426Z,6.60
2023-04-27T08:17:14.626Z,9.85
2023-04-27T08:19:41.575Z,8.07
2023-04-27T08:22:08.678Z,7.10
2023-04-27T08:24:36.295Z,6.88
2023-04-27T08:27:06.306Z,6.68
2023-04-27T08:29:33.547Z,7.78
2023-04-27T08:32:01.839Z,6.30
2023-04-27T08:34:29.179Z,7.18
2023-04-27T08:36:57.032Z,9.02
2023-04-27T08:39:24.528Z,7.57
2023-04-27T08:41:51.748Z,8.20
2023-04-27T08:44:18.912Z,6.35
2023-04-27T08:46:46.095Z,7.28
2023-04-27T08:49:15.199Z,7.75
2023-04-27T08:51:43.807Z,10.60
2023-04-27T08:54:10.753Z,5.93
2023-04-27T08:56:37.983Z,6.28
2023-04-27T08:59:14.103Z,7.03
2023-04-27T09:01:46.244Z,6.93
2023-04-27T09:04:13.596Z,6.90
2023-04-27T09:06:40.705Z,7.35
2023-04-27T09:09:07.872Z,9.90
2023-04-27T09:11:38.782Z,7.53
2023-04-27T09:14:22.424Z,10.60
2023-04-27T09:16:57.770Z,8.77
2023-04-27T09:19:29.359Z,7.30
2023-04-27T09:22:10.873Z,7.20
2023-04-27T09:24:37.982Z,7.25
2023-04-27T09:27:06.354Z,8.45
2023-04-27T09:29:37.024Z,8.05
2023-04-27T09:32:21.023Z,8.48
2023-04-27T09:34:48.426Z,6.40
2023-04-27T09:37:15.673Z,7.90
2023-04-27T09:39:42.733Z,10.23
2023-04-27T09:42:09.891Z,8.27
2023-04-27T09:44:37.152Z,11.07
2023-04-27T09:47:04.950Z,6.82
2023-04-27T09:49:31.939Z,8.65
2023-04-27T09:51:59.106Z,5.95
2023-04-27T09:54:27.553Z,7.88
2023-04-27T09:57:09.835Z,7.72
2023-04-27T09:59:42.054Z,9.65
2023-04-27T10:02:23.651Z,8.70
2023-04-27T10:05:16.151Z,7.30
2023-04-27T10:07:44.182Z,7.47
2023-04-27T10:10:17.310Z,8.68
2023-04-27T10:12:44.520Z,6.88
2023-04-27T10:15:13.424Z,6.53
2023-04-27T10:17:50.070Z,6.90
2023-04-27T10:20:17.925Z,5.97
2023-04-27T10:22:50.186Z,8.93
2023-04-27T10:25:26.607Z,9.15
2023-04-27T10:27:55.355Z,6.88
2023-04-27T10:30:27.287Z,6.78
2023-04-27T10:32:58.551Z,8.73
2023-04-27T10:35:39.523Z,10.02
2023-04-27T10:38:16.446Z,8.55
2023-04-27T10:40:54.084Z,6.32
2023-04-27T10:43:27.310Z,6.93
2023-04-27T10:45:54.353Z,6.50
2023-04-27T10:48:21.872Z,5.55
2023-04-27T10:50:51.835Z,5.07
2023-04-27T10:53:18.846Z,6.30
2023-04-27T10:55:46.958Z,5.95
2023-04-27T10:58:14.128Z,9.18
2023-04-27T11:00:44.384Z,7.55
2023-04-27T11:03:20.994Z,6.93
2023-04-27T11:05:49.234Z,6.40
2023-04-27T11:08:17.671Z,5.28
2023-04-27T11:10:46.208Z,11.93
2023-04-27T11:13:15.032Z,6.15
2023-04-27T11:15:55.722Z,8.55
2023-04-27T11:18:24.302Z,6.40
2023-04-27T11:20:52.627Z,7.55
2023-04-27T11:23:37.126Z,6.03
2023-04-27T11:26:17.086Z,7.00
2023-04-27T11:28:44.867Z,9.10
2023-04-27T11:31:12.117Z,8.60
2023-04-27T11:33:41.972Z,6.43
2023-04-27T11:36:19.213Z,6.88
2023-04-27T11:38:46.411Z,7.18
2023-04-27T11:41:13.411Z,14.63
2023-04-27T11:43:46.263Z,6.65
2023-04-27T11:46:13.526Z,6.60
2023-04-27T11:48:40.890Z,7.68
2023-04-27T11:51:10.353Z,5.63
2023-04-27T11:53:38.540Z,5.90
2023-04-27T11:56:10.698Z,7.72
2023-04-27T11:58:38.570Z,6.60
2023-04-27T12:01:06.197Z,6.80
2023-04-27T12:03:33.568Z,5.82
2023-04-27T12:06:15.879Z,5.32
2023-04-27T12:08:43.631Z,6.55
2023-04-27T12:11:10.588Z,6.47
2023-04-27T12:13:37.664Z,5.60
2023-04-27T12:16:05.228Z,5.28
2023-04-27T12:18:32.356Z,5.82
2023-04-27T12:21:02.892Z,4.82
2023-04-27T12:23:31.040Z,4.95
2023-04-27T12:25:58.108Z,5.75
2023-04-27T12:28:25.108Z,4.63
2023-04-27T12:30:52.216Z,5.07
2023-04-27T12:33:19.283Z,5.95
2023-04-27T12:35:46.466Z,6.47
2023-04-27T12:38:13.504Z,8.65
2023-04-27T12:40:40.501Z,6.13
2023-04-27T12:43:08.689Z,5.40
2023-04-27T12:45:35.625Z,6.00
2023-04-27T12:48:04.236Z,5.15
2023-04-27T12:50:37.860Z,5.80
2023-04-27T12:53:05.140Z,6.57
2023-04-27T12:55:34.536Z,5.20
2023-04-27T12:58:02.630Z,5.05
2023-04-27T13:00:30.101Z,7.03
2023-04-27T13:02:57.566Z,4.80
2023-04-27T13:05:24.842Z,4.72
2023-04-27T13:07:52.371Z,4.35
2023-04-27T13:10:19.366Z,7.38
2023-04-27T13:12:46.825Z,5.40
2023-04-27T13:15:14.092Z,7.10
2023-04-27T13:17:43.132Z,4.72
2023-04-27T13:20:11.310Z,4.43
2023-04-27T13:22:40.654Z,4.95
2023-04-27T13:25:09.556Z,4.63
2023-04-27T13:27:36.851Z,6.47
2023-04-27T13:30:05.360Z,6.18
2023-04-27T13:32:33.000Z,6.57
2023-04-27T13:35:00.141Z,10.25
2023-04-27T13:37:27.475Z,5.30
2023-04-27T13:39:54.510Z,7.32
2023-04-27T13:42:21.890Z,4.72
2023-04-27T13:44:49.065Z,6.63
2023-04-27T13:47:16.090Z,6.25
2023-04-27T13:49:43.224Z,5.97
2023-04-27T13:52:10.208Z,6.63
2023-04-27T13:54:37.686Z,9.32
2023-04-27T13:57:04.723Z,11.25
2023-04-27T13:59:32.090Z,7.20
2023-04-27T14:01:59.010Z,6.35
2023-04-27T14:04:26.283Z,6.18
2023-04-27T14:06:53.371Z,5.90
2023-04-27T14:09:20.554Z,7.40
2023-04-27T14:11:56.442Z,6.65
2023-04-27T14:14:24.380Z,5.40
2023-04-27T14:16:52.333Z,5.50
2023-04-27T14:19:20.687Z,7.18
2023-04-27T14:21:49.178Z,6.10
2023-04-27T14:24:16.584Z,6.97
2023-04-27T14:26:44.336Z,7.40
2023-04-27T14:29:11.877Z,7.32
2023-04-27T14:31:39.634Z,7.40
2023-04-27T14:34:07.408Z,8.07
2023-04-27T14:36:34.469Z,8.70
2023-04-27T14:39:01.538Z,6.20
2023-04-27T14:41:28.867Z,7.45
2023-04-27T14:43:55.998Z,10.20
2023-04-27T14:46:23.192Z,7.72
2023-04-27T14:48:51.335Z,5.90
2023-04-27T14:51:18.517Z,9.32
2023-04-27T14:53:45.803Z,6.70
2023-04-27T14:56:12.726Z,7.30
2023-04-27T14:58:39.766Z,6.55
2023-04-27T15:01:07.591Z,7.53
2023-04-27T15:03:34.834Z,6.05
2023-04-27T15:06:02.140Z,8.70
2023-04-27T15:08:31.312Z,5.88
2023-04-27T15:11:00.173Z,6.38
2023-04-27T15:13:27.604Z,7.95
2023-04-27T15:15:58.685Z,7.97
2023-04-27T15:18:25.772Z,7.40
2023-04-27T15:20:56.554Z,6.55
2023-04-27T15:23:24.065Z,6.63
2023-04-27T15:25:53.900Z,6.07
2023-04-27T15:28:20.949Z,8.57
2023-04-27T15:30:58.210Z,6.00
2023-04-27T15:33:25.763Z,6.32
2023-04-27T15:35:52.860Z,8.30
2023-04-27T15:38:19.986Z,6.70
2023-04-27T15:40:46.967Z,8.10
2023-04-27T15:43:15.118Z,7.75
2023-04-27T15:45:42.487Z,8.00
2023-04-27T15:48:11.401Z,9.25
2023-04-27T15:50:38.507Z,8.13
2023-04-27T15:53:05.516Z,13.63
2023-04-27T15:55:32.718Z,7.82
2023-04-27T15:57:59.695Z,7.65
2023-04-27T16:00:26.834Z,7.53
2023-04-27T16:02:54.201Z,6.70
2023-04-27T16:05:21.561Z,7.18
2023-04-27T16:07:48.507Z,7.57
2023-04-27T16:10:15.566Z,7.35
2023-04-27T16:12:42.490Z,9.23
2023-04-27T16:15:12.800Z,8.88
2023-04-27T16:17:39.847Z,7.13
2023-04-27T16:20:07.488Z,9.75
2023-04-27T16:22:35.513Z,11.80
2023-04-27T16:25:06.832Z,11.00
2023-04-27T16:27:34.377Z,7.40
2023-04-27T16:30:01.551Z,8.32
2023-04-27T16:32:34.542Z,7.93
2023-04-27T16:35:02.498Z,11.95
2023-04-27T16:37:31.691Z,10.00
2023-04-27T16:40:01.723Z,10.27
2023-04-27T16:42:31.179Z,8.00
2023-04-27T16:44:58.096Z,8.23
2023-04-27T16:47:25.095Z,9.07
2023-04-27T16:49:52.158Z,10.02
2023-04-27T16:52:19.983Z,9.07
2023-04-27T16:54:47.107Z,13.07
2023-04-27T16:57:14.366Z,9.10
2023-04-27T16:59:41.567Z,7.50
2023-04-27T17:02:23.010Z,8.35
2023-04-27T17:04:51.369Z,7.10
2023-04-27T17:07:18.605Z,7.30
2023-04-27T17:09:45.794Z,10.40
2023-04-27T17:12:14.666Z,7.80
2023-04-27T17:14:42.697Z,10.50
2023-04-27T17:17:10.573Z,10.32
2023-04-27T17:19:37.792Z,8.40
2023-04-27T17:22:04.932Z,10.55
2023-04-27T17:24:32.126Z,9.38
2023-04-27T17:26:59.039Z,9.52
2023-04-27T17:29:26.195Z,10.05
2023-04-27T17:31:53.276Z,10.82
2023-04-27T17:34:20.994Z,10.25
2023-04-27T17:36:48.175Z,12.02
2023-04-27T17:39:15.434Z,10.80
2023-04-27T17:41:42.630Z,9.48
2023-04-27T17:44:12.030Z,11.77
2023-04-27T17:46:39.168Z,10.80
2023-04-27T17:49:06.374Z,10.68
2023-04-27T17:51:33.864Z,12.45
2023-04-27T17:54:00.897Z,11.40
2023-04-27T17:56:27.900Z,9.30
2023-04-27T17:58:54.976Z,10.73
2023-04-27T18:01:22.019Z,8.80
2023-04-27T18:03:49.884Z,10.07
2023-04-27T18:06:19.461Z,8.05
2023-04-27T18:08:46.450Z,8.10
2023-04-27T18:11:13.532Z,9.63
2023-04-27T18:13:40.528Z,10.18
2023-04-27T18:16:07.672Z,10.95
2023-04-27T18:18:34.785Z,11.55
2023-04-27T18:21:01.859Z,11.30
2023-04-27T18:23:29.007Z,12.15
2023-04-27T18:26:00.034Z,10.50
2023-04-27T18:28:26.999Z,10.43
2023-04-27T18:30:54.107Z,10.98
2023-04-27T18:33:21.324Z,12.55
2023-04-27T18:35:48.541Z,9.75
2023-04-27T18:38:15.721Z,9.07
2023-04-27T18:40:42.744Z,11.88
2023-04-27T18:43:10.010Z,12.45
2023-04-27T18:45:37.333Z,9.68
2023-04-27T18:48:04.598Z,11.40
2023-04-27T18:50:31.747Z,14.80
2023-04-27T18:52:59.054Z,11.00
2023-04-27T18:55:26.181Z,9.65
2023-04-27T18:57:53.209Z,11.48
2023-04-27T19:00:20.348Z,12.93
2023-04-27T19:02:48.060Z,11.18
2023-04-27T19:05:16.042Z,10.23
2023-04-27T19:07:43.077Z,8.48
2023-04-27T19:10:11.012Z,10.95
2023-04-27T19:12:38.389Z,11.52
2023-04-27T19:15:05.826Z,13.48
2023-04-27T19:17:33.209Z,11.52
2023-04-27T19:20:00.678Z,13.65
2023-04-27T19:22:29.343Z,11.13
2023-04-27T19:24:56.407Z,12.13
2023-04-27T19:27:23.345Z,10.05
2023-04-27T19:29:57.328Z,11.80
2023-04-27T19:32:27.826Z,11.25
2023-04-27T19:34:56.190Z,12.15
2023-04-27T19:37:24.055Z,9.02
2023-04-27T19:39:51.050Z,10.52
2023-04-27T19:42:18.156Z,10.35
2023-04-27T19:44:45.127Z,10.35
2023-04-27T19:47:12.152Z,10.60
2023-04-27T19:49:39.265Z,10.60
2023-04-27T19:52:07.515Z,9.80
2023-04-27T19:54:36.211Z,10.50
2023-04-27T19:57:04.034Z,11.38
2023-04-27T19:59:31.080Z,10.02
2023-04-27T20:01:58.142Z,12.55
2023-04-27T20:04:25.372Z,9.20
2023-04-27T20:06:53.094Z,9.32
2023-04-27T20:09:20.160Z,10.23
2023-04-27T20:11:47.193Z,8.82
2023-04-27T20:14:14.586Z,9.30
2023-04-27T20:16:41.962Z,8.93
2023-04-27T20:19:10.825Z,10.65
2023-04-27T20:21:38.428Z,9.45
2023-04-27T20:24:05.614Z,10.80
2023-04-27T20:26:32.606Z,8.63
2023-04-27T20:28:59.767Z,9.93
2023-04-27T20:31:26.889Z,9.60
2023-04-27T20:33:54.444Z,9.38
2023-04-27T20:36:23.200Z,9.25
2023-04-27T20:38:50.492Z,9.93
2023-04-27T20:41:17.652Z,9.63
2023-04-27T20:43:45.607Z,9.75
2023-04-27T20:46:12.970Z,10.18
2023-04-27T20:48:40.126Z,10.60
2023-04-27T20:51:07.249Z,10.80
2023-04-27T20:53:34.358Z,11.52
2023-04-27T20:56:01.327Z,12.23
2023-04-27T20:58:28.553Z,12.07
2023-04-27T21:00:55.661Z,13.10
2023-04-27T21:03:22.877Z,10.80
2023-04-27T21:05:50.236Z,8.80
2023-04-27T21:08:17.292Z,11.52
2023-04-27T21:10:44.449Z,9.60
2023-04-27T21:13:11.630Z,9.15
2023-04-27T21:15:38.699Z,9.05
2023-04-27T21:18:07.842Z,11.88
2023-04-27T21:20:39.522Z,11.48
2023-04-27T21:23:06.559Z,12.70
2023-04-27T21:25:34.897Z,14.35
2023-04-27T21:28:01.937Z,10.55
2023-04-27T21:30:30.508Z,11.98
2023-04-27T21:32:57.565Z,15.90
2023-04-27T21:35:24.576Z,10.40
2023-04-27T21:37:51.616Z,13.88
2023-04-27T21:40:18.817Z,11.73
2023-04-27T21:42:47.071Z,12.05
2023-04-27T21:45:14.173Z,12.23
2023-04-27T21:47:41.331Z,9.80
2023-04-27T21:50:08.998Z,10.80
2023-04-27T21:52:36.061Z,19.08
2023-04-27T21:55:03.275Z,10.35
2023-04-27T21:57:33.130Z,10.50
2023-04-27T22:00:00.260Z,11.85
2023-04-27T22:02:29.518Z,12.07
2023-04-27T22:04:57.767Z,10.02
2023-04-27T22:07:26.698Z,9.85
2023-04-27T22:09:53.602Z,13.48
2023-04-27T22:12:20.563Z,11.13
2023-04-27T22:14:47.499Z,10.13
2023-04-27T22:17:15.226Z,14.75
2023-04-27T22:19:42.318Z,10.43
2023-04-27T22:22:10.446Z,13.05
2023-04-27T22:24:37.450Z,10.27
2023-04-27T22:27:04.437Z,13.10
2023-04-27T22:29:31.454Z,11.93
2023-04-27T22:31:58.583Z,12.35
2023-04-27T22:34:26.300Z,11.13
2023-04-27T22:36:53.569Z,13.25
2023-04-27T22:39:20.744Z,12.82
2023-04-27T22:41:47.727Z,14.02
2023-04-27T22:44:14.964Z,17.38
2023-04-27T22:46:45.055Z,15.25
2023-04-27T22:49:12.119Z,15.43
2023-04-27T22:51:39.214Z,15.50
2023-04-27T22:54:06.295Z,15.07
2023-04-27T22:56:33.695Z,14.27
2023-04-27T22:59:00.710Z,12.52
2023-04-27T23:01:27.731Z,15.95
2023-04-27T23:03:54.914Z,15.27
2023-04-27T23:06:22.234Z,15.50
2023-04-27T23:08:49.699Z,18.35
2023-04-27T23:11:19.235Z,15.07
2023-04-27T23:13:50.729Z,16.75
2023-04-27T23:16:17.969Z,15.10
2023-04-27T23:18:45.142Z,17.67
2023-04-27T23:21:12.369Z,19.48
2023-04-27T23:23:39.355Z,15.82
2023-04-27T23:26:16.412Z,19.17
2023-04-27T23:28:43.370Z,15.27
2023-04-27T23:31:10.807Z,19.25
2023-04-27T23:33:37.807Z,16.42
2023-04-27T23:36:05.207Z,21.35
2023-04-27T23:38:32.272Z,16.50
2023-04-27T23:40:59.217Z,19.40
2023-04-27T23:43:27.534Z,16.92
2023-04-27T23:45:54.591Z,16.05
2023-04-27T23:48:21.761Z,18.67
2023-04-27T23:50:48.838Z,18.75
2023-04-27T23:53:15.848Z,18.55
2023-04-27T23:55:42.860Z,17.83
2023-04-27T23:58:09.830Z,16.00
